sensor_id;sensor_type;location;lat;lon;timestamp;P1;durP1;ratioP1;P2;durP2;ratioP2
28545;SDS011;15749;49.606;8.738;2023-02-11T08:41:33;10.50;;;8.37;;
28545;SDS011;15749;49.606;8.738;2023-02-11T08:44:05;9.63;;;8.63;;
28545;SDS011;15749;49.606;8.738;2023-02-11T08:46:34;9.73;;;8.73;;
28545;SDS011;15749;49.606;8.738;2023-02-11T08:49:03;16.90;;;13.03;;
28545;SDS011;15749;49.606;8.738;2023-02-11T08:51:32;15.83;;;13.60;;
28545;SDS011;15749;49.606;8.738;2023-02-11T08:54:01;17.90;;;14.80;;
28545;SDS011;15749;49.606;8.738;2023-02-11T08:56:36;16.63;;;14.93;;
28545;SDS011;15749;49.606;8.738;2023-02-11T08:59:06;16.70;;;14.50;;
28545;SDS011;15749;49.606;8.738;2023-02-11T09:01:36;13.80;;;12.00;;
28545;SDS011;15749;49.606;8.738;2023-02-11T09:04:06;13.43;;;11.47;;
28545;SDS011;15749;49.606;8.738;2023-02-11T09:06:37;10.70;;;9.60;;
28545;SDS011;15749;49.606;8.738;2023-02-11T09:09:08;10.73;;;9.63;;
28545;SDS011;15749;49.606;8.738;2023-02-11T09:11:44;11.37;;;10.17;;
28545;SDS011;15749;49.606;8.738;2023-02-11T09:14:15;11.40;;;10.30;;
28545;SDS011;15749;49.606;8.738;2023-02-11T09:16:46;12.07;;;10.77;;
28545;SDS011;15749;49.606;8.738;2023-02-11T09:19:17;13.13;;;10.57;;
28545;SDS011;15749;49.606;8.738;2023-02-11T09:21:46;13.07;;;11.77;;
28545;SDS011;15749;49.606;8.738;2023-02-11T09:24:16;12.17;;;10.77;;
28545;SDS011;15749;49.606;8.738;2023-02-11T09:26:47;11.10;;;10.00;;
28545;SDS011;15749;49.606;8.738;2023-02-11T09:29:16;12.00;;;10.27;;
28545;SDS011;15749;49.606;8.738;2023-02-11T09:31:46;10.83;;;9.67;;
28545;SDS011;15749;49.606;8.738;2023-02-11T09:34:16;11.70;;;10.50;;
28545;SDS011;15749;49.606;8.738;2023-02-11T09:36:45;12.63;;;11.30;;
28545;SDS011;15749;49.606;8.738;2023-02-11T09:39:15;13.30;;;11.90;;
28545;SDS011;15749;49.606;8.738;2023-02-11T09:45:10;12.77;;;11.57;;
28545;SDS011;15749;49.606;8.738;2023-02-11T09:47:46;11.97;;;10.73;;
28545;SDS011;15749;49.606;8.738;2023-02-11T09:50:23;11.43;;;10.27;;
28545;SDS011;15749;49.606;8.738;2023-02-11T09:52:59;11.47;;;10.27;;
28545;SDS011;15749;49.606;8.738;2023-02-11T09:55:32;11.03;;;9.93;;
28545;SDS011;15749;49.606;8.738;2023-02-11T09:58:10;11.23;;;10.13;;
28545;SDS011;15749;49.606;8.738;2023-02-11T10:00:42;12.77;;;11.47;;
28545;SDS011;15749;49.606;8.738;2023-02-11T10:03:22;12.80;;;11.53;;
28545;SDS011;15749;49.606;8.738;2023-02-11T10:12:14;12.60;;;11.37;;
28545;SDS011;15749;49.606;8.738;2023-02-11T10:15:10;13.13;;;11.83;;
28545;SDS011;15749;49.606;8.738;2023-02-11T10:17:53;14.10;;;12.70;;
28545;SDS011;15749;49.606;8.738;2023-02-11T10:20:43;13.17;;;11.83;;
28545;SDS011;15749;49.606;8.738;2023-02-11T10:23:18;12.77;;;11.47;;
28545;SDS011;15749;49.606;8.738;2023-02-11T10:25:55;12.63;;;11.33;;
28545;SDS011;15749;49.606;8.738;2023-02-11T10:28:28;12.40;;;11.13;;
28545;SDS011;15749;49.606;8.738;2023-02-11T10:31:03;13.23;;;11.30;;
28545;SDS011;15749;49.606;8.738;2023-02-11T10:33:39;14.47;;;12.97;;
28545;SDS011;15749;49.606;8.738;2023-02-11T10:36:13;13.77;;;12.37;;
28545;SDS011;15749;49.606;8.738;2023-02-11T10:38:45;14.00;;;12.50;;
28545;SDS011;15749;49.606;8.738;2023-02-11T10:41:16;12.60;;;11.40;;
28545;SDS011;15749;49.606;8.738;2023-02-11T10:43:49;13.30;;;11.90;;
28545;SDS011;15749;49.606;8.738;2023-02-11T10:46:21;17.43;;;12.50;;
28545;SDS011;15749;49.606;8.738;2023-02-11T10:48:57;12.93;;;11.63;;
28545;SDS011;15749;49.606;8.738;2023-02-11T10:51:27;15.00;;;13.07;;
28545;SDS011;15749;49.606;8.738;2023-02-11T10:54:10;12.73;;;11.53;;
28545;SDS011;15749;49.606;8.738;2023-02-11T10:56:48;15.40;;;13.30;;
28545;SDS011;15749;49.606;8.738;2023-02-11T10:59:20;14.23;;;12.73;;
28545;SDS011;15749;49.606;8.738;2023-02-11T11:01:57;14.37;;;12.97;;
28545;SDS011;15749;49.606;8.738;2023-02-11T11:04:36;13.83;;;12.40;;
28545;SDS011;15749;49.606;8.738;2023-02-11T11:07:09;14.07;;;12.67;;
28545;SDS011;15749;49.606;8.738;2023-02-11T11:09:45;15.43;;;13.23;;
28545;SDS011;15749;49.606;8.738;2023-02-11T11:12:30;15.90;;;14.33;;
28545;SDS011;15749;49.606;8.738;2023-02-11T11:15:14;15.30;;;13.80;;
28545;SDS011;15749;49.606;8.738;2023-02-11T11:17:50;15.37;;;13.87;;
28545;SDS011;15749;49.606;8.738;2023-02-11T11:20:53;15.53;;;13.90;;
28545;SDS011;15749;49.606;8.738;2023-02-11T11:23:26;16.23;;;14.53;;
28545;SDS011;15749;49.606;8.738;2023-02-11T11:25:59;14.90;;;13.40;;
28545;SDS011;15749;49.606;8.738;2023-02-11T11:28:35;15.27;;;13.73;;
28545;SDS011;15749;49.606;8.738;2023-02-11T11:31:12;15.60;;;14.03;;
28545;SDS011;15749;49.606;8.738;2023-02-11T11:33:47;15.57;;;13.97;;
28545;SDS011;15749;49.606;8.738;2023-02-11T11:36:21;16.03;;;12.70;;
28545;SDS011;15749;49.606;8.738;2023-02-11T11:39:00;13.90;;;12.60;;
28545;SDS011;15749;49.606;8.738;2023-02-11T11:41:50;13.67;;;12.37;;
28545;SDS011;15749;49.606;8.738;2023-02-11T11:44:25;13.47;;;12.17;;
28545;SDS011;15749;49.606;8.738;2023-02-11T11:47:14;15.30;;;13.83;;
28545;SDS011;15749;49.606;8.738;2023-02-11T11:52:59;13.17;;;11.87;;
28545;SDS011;15749;49.606;8.738;2023-02-11T11:55:34;13.50;;;12.10;;
28545;SDS011;15749;49.606;8.738;2023-02-11T11:58:11;12.87;;;11.63;;
28545;SDS011;15749;49.606;8.738;2023-02-11T12:00:48;14.53;;;13.13;;
28545;SDS011;15749;49.606;8.738;2023-02-11T12:06:54;14.83;;;13.43;;
28545;SDS011;15749;49.606;8.738;2023-02-11T12:09:41;14.77;;;13.27;;
28545;SDS011;15749;49.606;8.738;2023-02-11T12:12:24;12.73;;;11.53;;
28545;SDS011;15749;49.606;8.738;2023-02-11T12:15:10;14.30;;;12.77;;
28545;SDS011;15749;49.606;8.738;2023-02-11T12:18:04;15.07;;;13.57;;
28545;SDS011;15749;49.606;8.738;2023-02-11T12:20:50;14.77;;;13.37;;
28545;SDS011;15749;49.606;8.738;2023-02-11T12:23:43;14.40;;;13.00;;
28545;SDS011;15749;49.606;8.738;2023-02-11T12:26:27;13.37;;;12.17;;
28545;SDS011;15749;49.606;8.738;2023-02-11T12:29:07;14.43;;;12.93;;
28545;SDS011;15749;49.606;8.738;2023-02-11T12:31:54;12.30;;;11.20;;
28545;SDS011;15749;49.606;8.738;2023-02-11T12:34:39;14.10;;;12.67;;
28545;SDS011;15749;49.606;8.738;2023-02-11T12:37:28;14.83;;;13.10;;
28545;SDS011;15749;49.606;8.738;2023-02-11T12:40:14;15.40;;;13.87;;
28545;SDS011;15749;49.606;8.738;2023-02-11T12:42:51;15.33;;;13.73;;
28545;SDS011;15749;49.606;8.738;2023-02-11T12:52:02;14.87;;;12.83;;
28545;SDS011;15749;49.606;8.738;2023-02-11T12:54:45;15.00;;;13.37;;
28545;SDS011;15749;49.606;8.738;2023-02-11T12:57:23;13.23;;;11.93;;
28545;SDS011;15749;49.606;8.738;2023-02-11T12:59:57;12.67;;;11.37;;
28545;SDS011;15749;49.606;8.738;2023-02-11T13:02:33;13.10;;;11.87;;
28545;SDS011;15749;49.606;8.738;2023-02-11T13:05:18;14.67;;;13.17;;
28545;SDS011;15749;49.606;8.738;2023-02-11T13:07:54;15.37;;;13.03;;
28545;SDS011;15749;49.606;8.738;2023-02-11T13:10:32;14.73;;;13.13;;
28545;SDS011;15749;49.606;8.738;2023-02-11T13:13:09;15.57;;;14.00;;
28545;SDS011;15749;49.606;8.738;2023-02-11T13:15:47;15.47;;;13.87;;
28545;SDS011;15749;49.606;8.738;2023-02-11T13:18:35;16.20;;;14.40;;
28545;SDS011;15749;49.606;8.738;2023-02-11T13:21:18;13.73;;;12.27;;
28545;SDS011;15749;49.606;8.738;2023-02-11T13:24:01;14.60;;;13.10;;
28545;SDS011;15749;49.606;8.738;2023-02-11T13:26:44;12.80;;;11.57;;
28545;SDS011;15749;49.606;8.738;2023-02-11T13:29:25;11.70;;;10.50;;
28545;SDS011;15749;49.606;8.738;2023-02-11T13:32:07;10.77;;;9.73;;
28545;SDS011;15749;49.606;8.738;2023-02-11T13:34:55;11.07;;;9.93;;
28545;SDS011;15749;49.606;8.738;2023-02-11T13:37:27;10.83;;;9.77;;
28545;SDS011;15749;49.606;8.738;2023-02-11T13:40:04;13.27;;;11.50;;
28545;SDS011;15749;49.606;8.738;2023-02-11T13:42:49;14.57;;;13.07;;
28545;SDS011;15749;49.606;8.738;2023-02-11T13:45:26;14.17;;;12.73;;
28545;SDS011;15749;49.606;8.738;2023-02-11T13:47:59;12.63;;;11.40;;
28545;SDS011;15749;49.606;8.738;2023-02-11T13:50:35;12.00;;;10.80;;
28545;SDS011;15749;49.606;8.738;2023-02-11T13:53:07;12.07;;;10.87;;
28545;SDS011;15749;49.606;8.738;2023-02-11T13:55:36;12.90;;;11.60;;
28545;SDS011;15749;49.606;8.738;2023-02-11T13:58:17;13.53;;;12.13;;
28545;SDS011;15749;49.606;8.738;2023-02-11T14:01:07;13.70;;;12.30;;
28545;SDS011;15749;49.606;8.738;2023-02-11T14:03:37;14.23;;;12.73;;
28545;SDS011;15749;49.606;8.738;2023-02-11T14:06:26;14.00;;;12.57;;
28545;SDS011;15749;49.606;8.738;2023-02-11T14:09:33;12.23;;;11.00;;
28545;SDS011;15749;49.606;8.738;2023-02-11T14:15:24;12.83;;;11.53;;
28545;SDS011;15749;49.606;8.738;2023-02-11T14:17:57;13.30;;;11.93;;
28545;SDS011;15749;49.606;8.738;2023-02-11T14:20:34;13.90;;;12.50;;
28545;SDS011;15749;49.606;8.738;2023-02-11T14:23:17;12.50;;;11.20;;
28545;SDS011;15749;49.606;8.738;2023-02-11T14:25:55;10.50;;;9.50;;
28545;SDS011;15749;49.606;8.738;2023-02-11T14:28:55;11.20;;;10.07;;
28545;SDS011;15749;49.606;8.738;2023-02-11T14:31:33;13.47;;;12.13;;
28545;SDS011;15749;49.606;8.738;2023-02-11T14:37:21;12.87;;;11.47;;
28545;SDS011;15749;49.606;8.738;2023-02-11T14:40:04;13.67;;;11.80;;
28545;SDS011;15749;49.606;8.738;2023-02-11T14:42:45;12.97;;;11.30;;
28545;SDS011;15749;49.606;8.738;2023-02-11T14:45:15;12.80;;;11.43;;
28545;SDS011;15749;49.606;8.738;2023-02-11T14:47:53;11.87;;;10.70;;
28545;SDS011;15749;49.606;8.738;2023-02-11T14:50:32;10.93;;;9.73;;
28545;SDS011;15749;49.606;8.738;2023-02-11T14:53:10;10.37;;;9.37;;
28545;SDS011;15749;49.606;8.738;2023-02-11T14:55:44;11.50;;;10.17;;
28545;SDS011;15749;49.606;8.738;2023-02-11T14:58:19;10.57;;;9.47;;
28545;SDS011;15749;49.606;8.738;2023-02-11T15:00:52;10.37;;;9.27;;
28545;SDS011;15749;49.606;8.738;2023-02-11T15:03:32;10.37;;;9.37;;
28545;SDS011;15749;49.606;8.738;2023-02-11T15:06:06;10.43;;;9.43;;
28545;SDS011;15749;49.606;8.738;2023-02-11T15:08:46;11.10;;;10.00;;
28545;SDS011;15749;49.606;8.738;2023-02-11T15:11:20;10.40;;;9.30;;
28545;SDS011;15749;49.606;8.738;2023-02-11T15:13:52;12.33;;;11.03;;
28545;SDS011;15749;49.606;8.738;2023-02-11T15:16:26;12.13;;;10.70;;
28545;SDS011;15749;49.606;8.738;2023-02-11T15:18:57;13.03;;;11.67;;
28545;SDS011;15749;49.606;8.738;2023-02-11T15:21:33;13.77;;;12.37;;
28545;SDS011;15749;49.606;8.738;2023-02-11T15:24:05;14.17;;;12.77;;
28545;SDS011;15749;49.606;8.738;2023-02-11T15:26:57;13.20;;;11.90;;
28545;SDS011;15749;49.606;8.738;2023-02-11T15:29:33;11.97;;;10.77;;
28545;SDS011;15749;49.606;8.738;2023-02-11T15:32:06;11.80;;;10.60;;
28545;SDS011;15749;49.606;8.738;2023-02-11T15:34:43;11.90;;;10.63;;
28545;SDS011;15749;49.606;8.738;2023-02-11T15:37:18;11.13;;;10.03;;
28545;SDS011;15749;49.606;8.738;2023-02-11T15:39:51;10.93;;;9.83;;
28545;SDS011;15749;49.606;8.738;2023-02-11T15:42:23;12.90;;;11.60;;
28545;SDS011;15749;49.606;8.738;2023-02-11T15:45:08;13.70;;;12.30;;
28545;SDS011;15749;49.606;8.738;2023-02-11T15:47:52;13.07;;;11.63;;
28545;SDS011;15749;49.606;8.738;2023-02-11T15:50:26;13.50;;;12.20;;
28545;SDS011;15749;49.606;8.738;2023-02-11T15:53:00;15.00;;;13.50;;
28545;SDS011;15749;49.606;8.738;2023-02-11T15:56:03;13.80;;;12.37;;
28545;SDS011;15749;49.606;8.738;2023-02-11T15:58:46;14.93;;;12.63;;
28545;SDS011;15749;49.606;8.738;2023-02-11T16:01:17;15.33;;;13.40;;
28545;SDS011;15749;49.606;8.738;2023-02-11T16:03:52;15.00;;;13.23;;
28545;SDS011;15749;49.606;8.738;2023-02-11T16:06:38;13.67;;;12.27;;
28545;SDS011;15749;49.606;8.738;2023-02-11T16:09:38;13.27;;;11.73;;
28545;SDS011;15749;49.606;8.738;2023-02-11T16:12:22;13.77;;;11.63;;
28545;SDS011;15749;49.606;8.738;2023-02-11T16:15:28;13.30;;;11.97;;
28545;SDS011;15749;49.606;8.738;2023-02-11T16:18:32;11.53;;;10.50;;
28545;SDS011;15749;49.606;8.738;2023-02-11T16:21:28;12.53;;;10.83;;
28545;SDS011;15749;49.606;8.738;2023-02-11T16:24:13;12.60;;;11.30;;
28545;SDS011;15749;49.606;8.738;2023-02-11T16:26:59;14.47;;;12.93;;
28545;SDS011;15749;49.606;8.738;2023-02-11T16:29:31;13.97;;;12.57;;
28545;SDS011;15749;49.606;8.738;2023-02-11T16:32:06;15.63;;;12.60;;
28545;SDS011;15749;49.606;8.738;2023-02-11T16:34:44;12.03;;;10.80;;
28545;SDS011;15749;49.606;8.738;2023-02-11T16:37:29;10.03;;;9.03;;
28545;SDS011;15749;49.606;8.738;2023-02-11T16:40:10;10.37;;;9.37;;
28545;SDS011;15749;49.606;8.738;2023-02-11T16:43:00;10.67;;;9.57;;
28545;SDS011;15749;49.606;8.738;2023-02-11T16:45:29;19.13;;;12.30;;
28545;SDS011;15749;49.606;8.738;2023-02-11T16:48:14;14.77;;;13.20;;
28545;SDS011;15749;49.606;8.738;2023-02-11T16:50:48;15.77;;;14.07;;
28545;SDS011;15749;49.606;8.738;2023-02-11T16:53:27;16.47;;;14.70;;
28545;SDS011;15749;49.606;8.738;2023-02-11T16:56:03;15.33;;;13.73;;
28545;SDS011;15749;49.606;8.738;2023-02-11T16:58:40;16.23;;;14.57;;
28545;SDS011;15749;49.606;8.738;2023-02-11T17:01:15;15.43;;;13.57;;
28545;SDS011;15749;49.606;8.738;2023-02-11T17:03:45;16.03;;;13.90;;
28545;SDS011;15749;49.606;8.738;2023-02-11T17:06:32;16.30;;;13.87;;
28545;SDS011;15749;49.606;8.738;2023-02-11T17:09:12;15.33;;;13.40;;
28545;SDS011;15749;49.606;8.738;2023-02-11T17:11:55;14.73;;;13.07;;
28545;SDS011;15749;49.606;8.738;2023-02-11T17:14:33;14.27;;;12.77;;
28545;SDS011;15749;49.606;8.738;2023-02-11T17:17:09;15.27;;;13.67;;
28545;SDS011;15749;49.606;8.738;2023-02-11T17:19:42;13.47;;;12.10;;
28545;SDS011;15749;49.606;8.738;2023-02-11T17:22:15;12.13;;;10.93;;
28545;SDS011;15749;49.606;8.738;2023-02-11T17:24:48;13.23;;;11.93;;
28545;SDS011;15749;49.606;8.738;2023-02-11T17:27:25;14.63;;;12.90;;
28545;SDS011;15749;49.606;8.738;2023-02-11T17:29:59;13.93;;;12.53;;
28545;SDS011;15749;49.606;8.738;2023-02-11T17:32:30;15.80;;;14.07;;
28545;SDS011;15749;49.606;8.738;2023-02-11T17:35:10;17.00;;;15.20;;
28545;SDS011;15749;49.606;8.738;2023-02-11T17:37:40;16.93;;;14.97;;
28545;SDS011;15749;49.606;8.738;2023-02-11T17:40:18;15.70;;;13.80;;
28545;SDS011;15749;49.606;8.738;2023-02-11T17:42:59;19.90;;;16.90;;
28545;SDS011;15749;49.606;8.738;2023-02-11T17:45:41;18.43;;;16.53;;
28545;SDS011;15749;49.606;8.738;2023-02-11T17:48:15;18.80;;;16.90;;
28545;SDS011;15749;49.606;8.738;2023-02-11T17:50:44;19.10;;;16.27;;
28545;SDS011;15749;49.606;8.738;2023-02-11T17:53:14;18.40;;;15.70;;
28545;SDS011;15749;49.606;8.738;2023-02-11T17:55:44;17.30;;;15.50;;
28545;SDS011;15749;49.606;8.738;2023-02-11T17:58:13;16.53;;;14.70;;
28545;SDS011;15749;49.606;8.738;2023-02-11T18:00:44;17.50;;;15.63;;
28545;SDS011;15749;49.606;8.738;2023-02-11T18:03:14;17.67;;;15.87;;
28545;SDS011;15749;49.606;8.738;2023-02-11T18:05:43;17.97;;;16.07;;
28545;SDS011;15749;49.606;8.738;2023-02-11T18:08:13;16.40;;;14.70;;
28545;SDS011;15749;49.606;8.738;2023-02-11T18:10:43;17.03;;;15.23;;
28545;SDS011;15749;49.606;8.738;2023-02-11T18:13:13;23.13;;;20.67;;
28545;SDS011;15749;49.606;8.738;2023-02-11T18:15:45;19.23;;;17.23;;
28545;SDS011;15749;49.606;8.738;2023-02-11T18:18:14;18.90;;;16.90;;
28545;SDS011;15749;49.606;8.738;2023-02-11T18:20:44;16.77;;;15.07;;
28545;SDS011;15749;49.606;8.738;2023-02-11T18:23:23;15.17;;;13.57;;
28545;SDS011;15749;49.606;8.738;2023-02-11T18:25:53;13.27;;;11.87;;
28545;SDS011;15749;49.606;8.738;2023-02-11T18:28:23;15.30;;;13.47;;
28545;SDS011;15749;49.606;8.738;2023-02-11T18:30:56;15.47;;;13.83;;
28545;SDS011;15749;49.606;8.738;2023-02-11T18:33:27;16.17;;;14.47;;
28545;SDS011;15749;49.606;8.738;2023-02-11T18:35:57;16.47;;;14.77;;
28545;SDS011;15749;49.606;8.738;2023-02-11T18:38:27;15.77;;;14.07;;
28545;SDS011;15749;49.606;8.738;2023-02-11T18:40:56;16.00;;;14.33;;
28545;SDS011;15749;49.606;8.738;2023-02-11T18:43:26;17.33;;;15.37;;
28545;SDS011;15749;49.606;8.738;2023-02-11T18:45:59;16.60;;;14.90;;
28545;SDS011;15749;49.606;8.738;2023-02-11T18:48:29;16.40;;;14.70;;
28545;SDS011;15749;49.606;8.738;2023-02-11T18:50:59;17.30;;;15.40;;
28545;SDS011;15749;49.606;8.738;2023-02-11T18:53:28;17.83;;;15.80;;
28545;SDS011;15749;49.606;8.738;2023-02-11T18:55:58;17.10;;;15.40;;
28545;SDS011;15749;49.606;8.738;2023-02-11T18:58:28;16.63;;;14.83;;
28545;SDS011;15749;49.606;8.738;2023-02-11T19:00:59;14.07;;;12.57;;
28545;SDS011;15749;49.606;8.738;2023-02-11T19:03:28;12.87;;;11.57;;
28545;SDS011;15749;49.606;8.738;2023-02-11T19:05:58;12.83;;;11.53;;
28545;SDS011;15749;49.606;8.738;2023-02-11T19:08:27;22.10;;;17.93;;
28545;SDS011;15749;49.606;8.738;2023-02-11T19:10:57;21.67;;;18.40;;
28545;SDS011;15749;49.606;8.738;2023-02-11T19:13:27;22.27;;;18.33;;
28545;SDS011;15749;49.606;8.738;2023-02-11T19:15:58;19.37;;;17.13;;
28545;SDS011;15749;49.606;8.738;2023-02-11T19:18:28;19.53;;;17.50;;
28545;SDS011;15749;49.606;8.738;2023-02-11T19:20:57;17.70;;;15.90;;
28545;SDS011;15749;49.606;8.738;2023-02-11T19:23:27;16.47;;;14.87;;
28545;SDS011;15749;49.606;8.738;2023-02-11T19:25:56;16.20;;;14.60;;
28545;SDS011;15749;49.606;8.738;2023-02-11T19:28:26;16.17;;;14.50;;
28545;SDS011;15749;49.606;8.738;2023-02-11T19:30:58;16.50;;;14.37;;
28545;SDS011;15749;49.606;8.738;2023-02-11T19:33:34;15.70;;;14.07;;
28545;SDS011;15749;49.606;8.738;2023-02-11T19:36:04;15.30;;;13.70;;
28545;SDS011;15749;49.606;8.738;2023-02-11T19:38:36;17.00;;;15.07;;
28545;SDS011;15749;49.606;8.738;2023-02-11T19:41:06;16.80;;;15.00;;
28545;SDS011;15749;49.606;8.738;2023-02-11T19:43:35;16.53;;;14.80;;
28545;SDS011;15749;49.606;8.738;2023-02-11T19:46:09;15.83;;;14.17;;
28545;SDS011;15749;49.606;8.738;2023-02-11T19:48:38;16.00;;;14.40;;
28545;SDS011;15749;49.606;8.738;2023-02-11T19:51:08;15.50;;;14.00;;
28545;SDS011;15749;49.606;8.738;2023-02-11T19:53:39;18.07;;;16.17;;
28545;SDS011;15749;49.606;8.738;2023-02-11T19:56:09;17.17;;;15.43;;
28545;SDS011;15749;49.606;8.738;2023-02-11T19:58:40;16.07;;;14.43;;
28545;SDS011;15749;49.606;8.738;2023-02-11T20:01:15;17.57;;;15.77;;
28545;SDS011;15749;49.606;8.738;2023-02-11T20:03:48;16.77;;;14.97;;
28545;SDS011;15749;49.606;8.738;2023-02-11T20:06:20;15.50;;;14.00;;
28545;SDS011;15749;49.606;8.738;2023-02-11T20:08:51;15.33;;;13.83;;
28545;SDS011;15749;49.606;8.738;2023-02-11T20:11:25;17.53;;;14.63;;
28545;SDS011;15749;49.606;8.738;2023-02-11T20:13:56;17.47;;;15.67;;
28545;SDS011;15749;49.606;8.738;2023-02-11T20:16:29;19.00;;;16.90;;
28545;SDS011;15749;49.606;8.738;2023-02-11T20:19:14;19.37;;;16.57;;
28545;SDS011;15749;49.606;8.738;2023-02-11T20:21:47;21.47;;;18.63;;
28545;SDS011;15749;49.606;8.738;2023-02-11T20:24:19;20.23;;;18.10;;
28545;SDS011;15749;49.606;8.738;2023-02-11T20:26:49;18.87;;;16.87;;
28545;SDS011;15749;49.606;8.738;2023-02-11T20:29:22;14.80;;;13.27;;
28545;SDS011;15749;49.606;8.738;2023-02-11T20:31:55;18.00;;;16.10;;
28545;SDS011;15749;49.606;8.738;2023-02-11T20:34:24;19.70;;;17.60;;
28545;SDS011;15749;49.606;8.738;2023-02-11T20:36:54;20.97;;;18.67;;
28545;SDS011;15749;49.606;8.738;2023-02-11T20:39:24;20.23;;;18.10;;
28545;SDS011;15749;49.606;8.738;2023-02-11T20:41:54;19.37;;;17.43;;
28545;SDS011;15749;49.606;8.738;2023-02-11T20:44:24;15.73;;;14.13;;
28545;SDS011;15749;49.606;8.738;2023-02-11T20:46:55;18.10;;;16.20;;
28545;SDS011;15749;49.606;8.738;2023-02-11T20:49:25;16.97;;;15.37;;
28545;SDS011;15749;49.606;8.738;2023-02-11T20:51:54;17.53;;;15.73;;
28545;SDS011;15749;49.606;8.738;2023-02-11T20:54:24;19.70;;;17.57;;
28545;SDS011;15749;49.606;8.738;2023-02-11T20:56:54;19.17;;;17.07;;
28545;SDS011;15749;49.606;8.738;2023-02-11T20:59:24;16.80;;;15.10;;
28545;SDS011;15749;49.606;8.738;2023-02-11T21:01:56;18.30;;;16.37;;
28545;SDS011;15749;49.606;8.738;2023-02-11T21:04:26;16.23;;;14.43;;
28545;SDS011;15749;49.606;8.738;2023-02-11T21:06:59;17.33;;;15.43;;
28545;SDS011;15749;49.606;8.738;2023-02-11T21:09:30;18.57;;;16.57;;
28545;SDS011;15749;49.606;8.738;2023-02-11T21:12:00;17.93;;;15.63;;
28545;SDS011;15749;49.606;8.738;2023-02-11T21:14:30;17.07;;;15.10;;
28545;SDS011;15749;49.606;8.738;2023-02-11T21:17:02;17.70;;;15.90;;
28545;SDS011;15749;49.606;8.738;2023-02-11T21:19:31;17.47;;;15.53;;
28545;SDS011;15749;49.606;8.738;2023-02-11T21:22:01;19.83;;;17.17;;
28545;SDS011;15749;49.606;8.738;2023-02-11T21:24:31;19.47;;;17.47;;
28545;SDS011;15749;49.606;8.738;2023-02-11T21:27:02;18.77;;;16.77;;
28545;SDS011;15749;49.606;8.738;2023-02-11T21:29:31;16.70;;;15.03;;
28545;SDS011;15749;49.606;8.738;2023-02-11T21:32:13;15.03;;;13.53;;
28545;SDS011;15749;49.606;8.738;2023-02-11T21:34:43;16.73;;;14.60;;
28545;SDS011;15749;49.606;8.738;2023-02-11T21:37:13;18.80;;;16.50;;
28545;SDS011;15749;49.606;8.738;2023-02-11T21:39:43;17.80;;;16.00;;
28545;SDS011;15749;49.606;8.738;2023-02-11T21:42:12;19.30;;;16.53;;
28545;SDS011;15749;49.606;8.738;2023-02-11T21:44:41;21.87;;;18.70;;
28545;SDS011;15749;49.606;8.738;2023-02-11T21:47:12;21.30;;;18.70;;
28545;SDS011;15749;49.606;8.738;2023-02-11T21:49:42;20.40;;;18.20;;
28545;SDS011;15749;49.606;8.738;2023-02-11T21:52:12;21.33;;;19.03;;
28545;SDS011;15749;49.606;8.738;2023-02-11T21:54:41;20.30;;;18.23;;
28545;SDS011;15749;49.606;8.738;2023-02-11T21:57:11;20.57;;;18.37;;
28545;SDS011;15749;49.606;8.738;2023-02-11T21:59:40;21.90;;;19.40;;
28545;SDS011;15749;49.606;8.738;2023-02-11T22:02:10;22.33;;;18.73;;
28545;SDS011;15749;49.606;8.738;2023-02-11T22:04:41;20.80;;;18.63;;
28545;SDS011;15749;49.606;8.738;2023-02-11T22:07:11;20.03;;;17.73;;
28545;SDS011;15749;49.606;8.738;2023-02-11T22:09:40;20.00;;;17.90;;
28545;SDS011;15749;49.606;8.738;2023-02-11T22:12:10;19.33;;;17.43;;
28545;SDS011;15749;49.606;8.738;2023-02-11T22:14:40;18.93;;;16.80;;
28545;SDS011;15749;49.606;8.738;2023-02-11T22:17:10;18.53;;;16.57;;
28545;SDS011;15749;49.606;8.738;2023-02-11T22:19:41;19.47;;;17.37;;
28545;SDS011;15749;49.606;8.738;2023-02-11T22:22:10;19.57;;;17.53;;
28545;SDS011;15749;49.606;8.738;2023-02-11T22:24:44;17.67;;;15.77;;
28545;SDS011;15749;49.606;8.738;2023-02-11T22:27:14;16.43;;;14.83;;
28545;SDS011;15749;49.606;8.738;2023-02-11T22:29:46;15.07;;;13.33;;
28545;SDS011;15749;49.606;8.738;2023-02-11T22:32:16;16.57;;;14.87;;
28545;SDS011;15749;49.606;8.738;2023-02-11T22:34:47;18.17;;;16.27;;
28545;SDS011;15749;49.606;8.738;2023-02-11T22:37:19;19.60;;;17.60;;
28545;SDS011;15749;49.606;8.738;2023-02-11T22:39:49;18.37;;;16.47;;
28545;SDS011;15749;49.606;8.738;2023-02-11T22:42:18;20.47;;;18.27;;
28545;SDS011;15749;49.606;8.738;2023-02-11T22:44:48;19.23;;;17.23;;
28545;SDS011;15749;49.606;8.738;2023-02-11T22:47:18;17.87;;;15.93;;
28545;SDS011;15749;49.606;8.738;2023-02-11T22:49:48;18.30;;;16.40;;
28545;SDS011;15749;49.606;8.738;2023-02-11T22:52:18;17.20;;;15.40;;
28545;SDS011;15749;49.606;8.738;2023-02-11T22:54:49;17.73;;;15.93;;
28545;SDS011;15749;49.606;8.738;2023-02-11T22:57:18;19.33;;;17.17;;
28545;SDS011;15749;49.606;8.738;2023-02-11T22:59:48;19.80;;;17.77;;
28545;SDS011;15749;49.606;8.738;2023-02-11T23:02:18;20.00;;;17.30;;
28545;SDS011;15749;49.606;8.738;2023-02-11T23:04:49;20.17;;;18.00;;
28545;SDS011;15749;49.606;8.738;2023-02-11T23:07:19;20.90;;;18.07;;
28545;SDS011;15749;49.606;8.738;2023-02-11T23:09:48;21.47;;;19.07;;
28545;SDS011;15749;49.606;8.738;2023-02-11T23:12:18;19.53;;;17.57;;
28545;SDS011;15749;49.606;8.738;2023-02-11T23:14:49;21.43;;;19.13;;
28545;SDS011;15749;49.606;8.738;2023-02-11T23:17:18;21.53;;;19.10;;
28545;SDS011;15749;49.606;8.738;2023-02-11T23:19:52;21.87;;;19.53;;
28545;SDS011;15749;49.606;8.738;2023-02-11T23:22:24;21.00;;;18.90;;
28545;SDS011;15749;49.606;8.738;2023-02-11T23:24:54;19.20;;;17.20;;
28545;SDS011;15749;49.606;8.738;2023-02-11T23:27:23;17.33;;;15.53;;
28545;SDS011;15749;49.606;8.738;2023-02-11T23:29:54;16.43;;;14.67;;
28545;SDS011;15749;49.606;8.738;2023-02-11T23:32:24;14.00;;;12.60;;
28545;SDS011;15749;49.606;8.738;2023-02-11T23:34:55;15.73;;;14.10;;
28545;SDS011;15749;49.606;8.738;2023-02-11T23:37:24;19.33;;;17.10;;
28545;SDS011;15749;49.606;8.738;2023-02-11T23:39:54;20.93;;;17.60;;
28545;SDS011;15749;49.606;8.738;2023-02-11T23:42:24;21.53;;;18.43;;
28545;SDS011;15749;49.606;8.738;2023-02-11T23:44:54;26.10;;;20.43;;
28545;SDS011;15749;49.606;8.738;2023-02-11T23:47:24;26.87;;;21.13;;
28545;SDS011;15749;49.606;8.738;2023-02-11T23:49:55;21.40;;;17.47;;
28545;SDS011;15749;49.606;8.738;2023-02-11T23:52:25;19.90;;;17.10;;
28545;SDS011;15749;49.606;8.738;2023-02-11T23:54:55;18.90;;;16.80;;
28545;SDS011;15749;49.606;8.738;2023-02-11T23:57:24;21.40;;;17.77;;
28545;SDS011;15749;49.606;8.738;2023-02-11T23:59:54;17.93;;;15.50;;
